Weather at Bohsin Borderpost Helipad

Public forecast

Using degrees Celsius for public forecast. Weather courtesy of forecast.io.

Closest aviation weather report (METAR) to Bohsin Borderpost Helipad

Closest report is Hatay Airport, 10.0 nm (18.4 km) NNW.

2024/05/20 02:50 (retrieved 57 minutes ago)

LTDA 200250Z 20006KT 9999 FEW040 BKN200 19/15 Q1008 NOSIG

Closest aviation forecast (TAF) to Bohsin Borderpost Helipad

Forecast is more than 12 hours old.

Closest forecast is Hmeimim Air Base, 53.7 nm (99.5 km) SSW.

2024/05/18 06:36 (retrieved 2 days ago)

TAF OSLK 180400Z 1806/1906 31010KT 9999 SCT030